Time;durP1;ratioP1;P1;durP2;ratioP2;P2;SDS_P1;SDS_P2;PMS_P1;PMS_P2;Temp;Humidity;BMP_temperature;BMP_pressure;BME280_temperature;BME280_humidity;BME280_pressure;Samples;Min_cycle;Max_cycle;Signal;HPM_P1;HPM_P2
2021/08/11 00:00:18;;;;;;;15.18;8.43;;;;;;;15.55;78.85;101812.19;4962984;29;20470;-84
2021/08/11 00:02:45;;;;;;;12.80;8.05;;;;;;;15.52;78.66;101810.56;4963626;29;20028;-84
2021/08/11 00:05:11;;;;;;;11.85;7.72;;;;;;;15.53;78.39;101814.94;4930390;29;20557;-83
2021/08/11 00:07:38;;;;;;;13.90;7.90;;;;;;;15.49;78.65;101816.09;4962219;29;20070;-83
2021/08/11 00:10:04;;;;;;;15.27;8.73;;;;;;;15.48;79.21;101814.38;4946390;29;20086;-83
2021/08/11 00:12:31;;;;;;;16.90;8.70;;;;;;;15.51;79.21;101818.66;4946866;29;20042;-84
2021/08/11 00:14:56;;;;;;;13.25;8.00;;;;;;;15.50;78.73;101815.13;4963691;29;20406;-83
2021/08/11 00:17:25;;;;;;;15.48;8.82;;;;;;;15.47;78.87;101809.13;4962284;29;20042;-83
2021/08/11 00:19:53;;;;;;;17.83;8.85;;;;;;;15.42;78.72;101814.75;4945705;29;20031;-83
2021/08/11 00:22:21;;;;;;;14.93;7.93;;;;;;;15.43;78.58;101816.44;4963693;29;20636;-83
2021/08/11 00:24:47;;;;;;;15.15;8.77;;;;;;;15.41;78.45;101815.66;4945627;29;20086;-83
2021/08/11 00:27:17;;;;;;;19.02;10.02;;;;;;;15.41;78.99;101815.66;4931228;29;20445;-84
2021/08/11 00:29:47;;;;;;;14.95;8.40;;;;;;;15.42;78.44;101814.75;4946927;29;20382;-83
2021/08/11 00:32:12;;;;;;;15.35;8.45;;;;;;;15.42;78.25;101812.91;4965781;28;20027;-83
2021/08/11 00:34:41;;;;;;;14.30;8.77;;;;;;;15.44;78.13;101811.03;4974424;23;20047;-84
2021/08/11 00:37:08;;;;;;;14.43;8.38;;;;;;;15.40;78.18;101805.97;4950382;29;20046;-85
2021/08/11 00:39:33;;;;;;;13.02;8.05;;;;;;;15.42;77.75;101814.75;4967191;29;20023;-84
2021/08/11 00:41:59;;;;;;;14.60;9.02;;;;;;;15.43;77.83;101808.44;4949744;29;20035;-85
2021/08/11 00:44:25;;;;;;;14.85;10.10;;;;;;;15.41;77.55;101807.69;4949774;29;20394;-84
2021/08/11 00:46:53;;;;;;;14.80;9.27;;;;;;;15.46;77.44;101810.94;4967184;29;20027;-84
2021/08/11 00:49:19;;;;;;;15.25;9.48;;;;;;;15.43;77.39;101804.00;4967682;29;20050;-84
2021/08/11 00:51:46;;;;;;;13.95;8.60;;;;;;;15.41;77.31;101803.22;4950599;29;20038;-84
2021/08/11 00:54:14;;;;;;;13.50;8.88;;;;;;;15.39;77.26;101805.09;4967516;29;20078;-83
2021/08/11 00:56:45;;;;;;;15.48;8.93;;;;;;;15.42;77.36;101806.75;4934279;29;20542;-83
2021/08/11 00:59:16;;;;;;;18.00;9.53;;;;;;;15.42;77.08;101804.09;4934708;29;20027;-83
2021/08/11 01:01:41;;;;;;;15.10;9.80;;;;;;;15.41;76.90;101797.88;4951058;29;20027;-83
2021/08/11 01:04:07;;;;;;;19.05;10.60;;;;;;;15.37;77.67;101806.16;4967877;29;20032;-83
2021/08/11 01:06:38;;;;;;;16.25;9.02;;;;;;;15.42;77.13;101806.75;4950811;29;20039;-83
2021/08/11 01:09:04;;;;;;;16.67;10.32;;;;;;;15.37;77.77;101807.00;4950032;29;20122;-83
2021/08/11 01:11:31;;;;;;;15.75;9.43;;;;;;;15.41;77.68;101805.88;4950686;29;20028;-82
2021/08/11 01:13:58;;;;;;;16.63;10.05;;;;;;;15.45;77.26;101806.56;4934876;29;20024;-83
2021/08/11 01:16:25;;;;;;;18.42;10.13;;;;;;;15.41;78.03;101811.22;4966795;29;20047;-82
2021/08/11 01:18:53;;;;;;;12.80;9.35;;;;;;;15.42;77.72;101802.25;4966492;29;20104;-82
2021/08/11 01:21:25;;;;;;;15.32;10.10;;;;;;;15.47;77.66;101801.16;4967402;29;20464;-83
2021/08/11 01:24:00;;;;;;;13.50;9.68;;;;;;;15.45;77.71;101796.75;4950486;29;20090;-83
2021/08/11 01:26:58;;;;;;;15.50;10.20;;;;;;;15.50;77.67;101801.81;4950116;29;20037;-83
2021/08/11 01:29:57;;;;;;;16.67;9.43;;;;;;;15.45;77.79;101795.91;4967145;29;20043;-84
2021/08/11 01:32:47;;;;;;;14.48;9.93;;;;;;;15.47;77.71;101796.66;4966761;29;20557;-83
2021/08/11 01:35:15;;;;;;;15.23;9.30;;;;;;;15.46;77.98;101802.94;4936187;29;20523;-82
2021/08/11 01:37:41;;;;;;;16.25;9.30;;;;;;;15.47;78.24;101801.16;4950232;29;20043;-82
2021/08/11 01:40:08;;;;;;;16.48;10.05;;;;;;;15.49;78.14;101807.22;4935112;29;20034;-83
2021/08/11 01:42:40;;;;;;;16.08;9.25;;;;;;;15.50;77.72;101807.13;4971726;28;20038;-82
2021/08/11 01:45:16;;;;;;;16.42;9.93;;;;;;;15.44;77.93;101803.03;4954626;29;20071;-82
2021/08/11 01:47:55;;;;;;;18.50;10.45;;;;;;;15.39;78.53;101813.09;4950168;29;20031;-84
2021/08/11 01:50:31;;;;;;;15.38;9.90;;;;;;;15.41;78.81;101805.88;4936531;29;20055;-82
2021/08/11 01:52:57;;;;;;;17.98;10.25;;;;;;;15.45;78.49;101801.22;4967615;29;20051;-83
2021/08/11 01:55:24;;;;;;;17.35;9.57;;;;;;;15.43;78.25;101811.13;4966531;29;20015;-84
2021/08/11 01:57:53;;;;;;;18.73;10.15;;;;;;;15.42;79.04;101812.91;4948231;29;20043;-84
2021/08/11 02:00:23;;;;;;;15.38;9.75;;;;;;;15.40;78.51;101806.84;4965192;29;20039;-84
2021/08/11 02:02:55;;;;;;;16.15;10.77;;;;;;;15.38;78.69;101813.19;4948795;29;20031;-83
2021/08/11 02:05:22;;;;;;;15.45;10.10;;;;;;;15.35;78.97;101808.03;4939721;29;20558;-83
2021/08/11 02:07:49;;;;;;;16.50;11.25;;;;;;;15.28;79.77;101810.22;4949771;29;20051;-83
2021/08/11 02:10:16;;;;;;;18.60;12.77;;;;;;;15.29;80.01;101806.59;4918547;29;20366;-83
2021/08/11 02:12:42;;;;;;;20.67;11.98;;;;;;;15.32;79.65;101809.06;4949421;29;20079;-85
2021/08/11 02:15:10;;;;;;;23.65;13.27;;;;;;;15.27;80.50;101808.47;4948962;29;20103;-84
2021/08/11 02:17:39;;;;;;;19.05;12.38;;;;;;;15.30;80.12;101809.16;4933322;29;20565;-84
2021/08/11 02:20:10;;;;;;;21.52;12.85;;;;;;;15.30;80.37;101808.28;4980674;29;20218;-83
2021/08/11 02:22:38;;;;;;;21.85;13.18;;;;;;;15.30;80.43;101806.50;4934688;29;20031;-83
2021/08/11 02:25:09;;;;;;;20.17;12.75;;;;;;;15.30;80.44;101813.63;4966130;29;20023;-84
2021/08/11 02:28:09;;;;;;;20.17;12.43;;;;;;;15.34;80.62;101811.66;4949704;29;20031;-84
2021/08/11 02:31:01;;;;;;;19.25;11.98;;;;;;;15.35;80.43;101808.91;4947457;29;20075;-83
2021/08/11 02:34:00;;;;;;;28.63;12.60;;;;;;;15.32;80.64;101817.06;4964946;29;20050;-83
2021/08/11 02:36:32;;;;;;;24.75;12.82;;;;;;;15.33;80.69;101813.44;4887761;29;20101;-83
2021/08/11 02:39:08;;;;;;;21.85;12.27;;;;;;;15.32;80.40;101814.41;4887852;29;20072;-83
2021/08/11 02:41:42;;;;;;;23.20;13.45;;;;;;;15.34;80.54;101811.66;4872067;29;20041;-84
2021/08/11 02:44:19;;;;;;;20.50;13.05;;;;;;;15.35;80.39;101808.03;4873162;29;20041;-83
2021/08/11 02:46:49;;;;;;;21.63;12.02;;;;;;;15.42;80.19;101814.75;4887916;29;20045;-84
2021/08/11 02:49:25;;;;;;;17.02;11.30;;;;;;;15.47;79.62;101812.66;4872767;29;20072;-84
2021/08/11 02:51:51;;;;;;;22.23;12.15;;;;;;;15.55;79.46;101812.19;4887133;29;20112;-83
2021/08/11 02:54:16;;;;;;;20.27;11.98;;;;;;;15.50;79.04;101811.63;4841495;29;20034;-84
2021/08/11 02:56:47;;;;;;;19.48;11.55;;;;;;;15.57;78.73;101807.63;4888699;29;20037;-83
2021/08/11 02:59:15;;;;;;;22.10;11.48;;;;;;;15.66;78.50;101808.88;4873691;29;20051;-82
2021/08/11 03:01:46;;;;;;;19.63;12.82;;;;;;;15.66;78.55;101812.44;4875457;29;20045;-83
2021/08/11 03:04:13;;;;;;;16.30;11.05;;;;;;;15.73;78.14;101812.94;4877626;29;20053;-83
2021/08/11 03:06:39;;;;;;;18.80;11.73;;;;;;;15.74;77.92;101806.63;4898756;29;20040;-83
2021/08/11 03:09:07;;;;;;;22.40;12.05;;;;;;;15.71;78.48;101806.81;4880915;29;20045;-82
2021/08/11 03:11:34;;;;;;;22.70;12.48;;;;;;;15.78;78.02;101810.81;4918845;29;20043;-83
2021/08/11 03:14:01;;;;;;;21.77;12.60;;;;;;;15.70;78.38;101805.94;4969614;29;20031;-83
2021/08/11 03:16:28;;;;;;;21.15;13.50;;;;;;;15.73;78.33;101804.06;4973901;29;20394;-82
2021/08/11 03:18:56;;;;;;;21.42;13.25;;;;;;;15.74;78.22;101806.63;4971363;29;20039;-82
2021/08/11 03:21:23;;;;;;;25.45;13.65;;;;;;;15.64;78.82;101803.66;4969317;29;20027;-82
2021/08/11 03:23:50;;;;;;;22.10;13.77;;;;;;;15.61;79.23;101803.84;4976393;29;20074;-83
2021/08/11 03:26:15;;;;;;;20.35;13.23;;;;;;;15.63;78.77;101801.94;4974167;29;20039;-83
2021/08/11 03:28:41;;;;;;;23.52;13.10;;;;;;;15.59;79.17;101802.22;4975029;29;20023;-84
2021/08/11 03:31:06;;;;;;;23.95;15.23;;;;;;;15.45;79.66;101802.06;4975733;29;20050;-83
2021/08/11 03:33:35;;;;;;;24.33;15.52;;;;;;;15.55;79.77;101805.06;4974282;29;20057;-84
2021/08/11 03:36:00;;;;;;;30.00;16.08;;;;;;;15.46;80.04;101808.28;4975119;29;20031;-84
2021/08/11 03:38:29;;;;;;;27.70;15.80;;;;;;;15.54;79.85;101814.03;4973332;29;20077;-83
2021/08/11 03:40:55;;;;;;;27.13;14.98;;;;;;;15.49;80.02;101813.41;4975562;29;20037;-85
2021/08/11 03:43:20;;;;;;;31.52;17.00;;;;;;;15.44;80.35;101812.81;4975541;29;20016;-85
2021/08/11 03:45:48;;;;;;;27.42;17.13;;;;;;;15.41;80.57;101805.88;4976323;29;20024;-83
2021/08/11 03:48:15;;;;;;;26.33;16.42;;;;;;;15.42;80.45;101817.41;4976805;29;20119;-83
2021/08/11 03:50:41;;;;;;;29.95;17.10;;;;;;;15.46;80.56;101813.59;4971853;29;20107;-82
2021/08/11 03:53:10;;;;;;;33.30;18.00;;;;;;;15.32;80.77;101812.63;4954242;29;20027;-84
2021/08/11 03:55:35;;;;;;;28.08;17.25;;;;;;;15.38;80.44;101815.84;4971461;29;20039;-84
2021/08/11 03:58:04;;;;;;;33.33;18.08;;;;;;;15.37;80.42;101817.69;4972052;29;20028;-83
2021/08/11 04:00:29;;;;;;;28.75;16.52;;;;;;;15.24;80.96;101825.50;4977529;29;20079;-84
2021/08/11 04:02:56;;;;;;;35.03;18.40;;;;;;;15.29;80.94;101826.13;4959547;29;20040;-83
2021/08/11 04:05:26;;;;;;;31.88;18.48;;;;;;;15.23;81.53;101821.13;4978645;28;20050;-84
2021/08/11 04:07:51;;;;;;;35.95;19.33;;;;;;;15.27;81.18;101827.13;4981921;29;20039;-83
2021/08/11 04:10:17;;;;;;;33.67;17.73;;;;;;;15.25;80.98;101815.72;4982251;29;20031;-84
2021/08/11 04:12:44;;;;;;;37.88;19.38;;;;;;;15.20;81.48;101815.97;4977721;29;20043;-83
2021/08/11 04:15:12;;;;;;;34.42;18.58;;;;;;;15.17;81.67;101817.00;4944889;29;20035;-83
2021/08/11 04:17:39;;;;;;;34.15;18.85;;;;;;;15.20;81.78;101830.13;4981016;29;20035;-84
2021/08/11 04:20:07;;;;;;;35.47;18.15;;;;;;;15.26;81.20;101822.75;4980506;29;20023;-84
2021/08/11 04:22:38;;;;;;;35.22;17.90;;;;;;;15.24;81.26;101827.31;4978396;29;20071;-83
2021/08/11 04:25:04;;;;;;;35.53;17.98;;;;;;;15.21;81.57;101825.69;4976659;29;20090;-83
2021/08/11 04:27:36;;;;;;;32.03;18.13;;;;;;;15.20;81.76;101822.16;4980647;29;20012;-84
2021/08/11 04:30:01;;;;;;;33.78;18.48;;;;;;;15.15;82.10;101826.03;4978870;29;20040;-84
2021/08/11 04:32:27;;;;;;;35.25;18.75;;;;;;;15.20;82.16;101834.63;4958800;29;20065;-83
2021/08/11 04:34:57;;;;;;;33.63;18.65;;;;;;;15.24;81.54;101833.50;4977812;23;20443;-84
2021/08/11 04:37:23;;;;;;;36.67;18.40;;;;;;;15.26;81.79;101847.59;4963925;29;20051;-85
2021/08/11 04:39:49;;;;;;;38.03;18.63;;;;;;;15.28;81.88;101840.38;4947725;29;20077;-84
2021/08/11 04:42:15;;;;;;;37.53;18.30;;;;;;;15.39;81.38;101839.75;4965001;29;20029;-84
2021/08/11 04:44:40;;;;;;;30.80;17.88;;;;;;;15.42;81.38;101841.41;4947897;29;20028;-84
2021/08/11 04:47:06;;;;;;;37.65;18.92;;;;;;;15.42;81.56;101844.06;4947258;29;20496;-83
2021/08/11 04:49:31;;;;;;;34.40;18.38;;;;;;;15.48;81.46;101841.03;4946814;29;20541;-84
2021/08/11 04:51:57;;;;;;;33.63;18.33;;;;;;;15.62;81.18;101839.38;4964892;29;20038;-84
2021/08/11 04:54:24;;;;;;;33.97;18.30;;;;;;;15.62;81.11;101834.03;4947840;29;20494;-83
2021/08/11 04:56:51;;;;;;;37.03;18.38;;;;;;;15.63;81.03;101835.75;4947999;29;20031;-83
2021/08/11 04:59:17;;;;;;;32.33;16.88;;;;;;;15.79;80.64;101843.69;4963658;29;20047;-84
2021/08/11 05:01:42;;;;;;;31.90;17.25;;;;;;;15.77;80.73;101837.59;4964317;29;20419;-85
2021/08/11 05:04:08;;;;;;;29.70;17.33;;;;;;;15.87;80.42;101835.25;4962343;29;20087;-84
2021/08/11 05:06:34;;;;;;;28.98;16.73;;;;;;;15.82;80.56;101832.84;4928768;29;20089;-82
2021/08/11 05:09:07;;;;;;;31.98;16.88;;;;;;;15.87;80.75;101836.09;4964557;29;20051;-82
2021/08/11 05:11:34;;;;;;;27.05;16.05;;;;;;;16.03;79.79;101840.56;4964902;29;20110;-83
2021/08/11 05:14:01;;;;;;;25.98;15.57;;;;;;;16.11;79.77;101848.97;4945075;29;20067;-84
2021/08/11 05:16:27;;;;;;;31.10;16.35;;;;;;;16.10;79.87;101838.38;4961347;29;20027;-84
2021/08/11 05:18:54;;;;;;;31.98;17.52;;;;;;;15.97;80.40;101839.09;4943885;29;20034;-82
2021/08/11 05:21:20;;;;;;;27.75;15.68;;;;;;;16.18;79.81;101844.94;4961151;29;20043;-83
2021/08/11 05:23:45;;;;;;;27.23;15.98;;;;;;;16.09;79.87;101842.84;4961387;29;20030;-83
2021/08/11 05:26:10;;;;;;;28.27;15.98;;;;;;;16.19;79.89;101845.81;4943788;29;20055;-84
2021/08/11 05:28:37;;;;;;;28.38;15.77;;;;;;;16.39;79.25;101843.72;4960353;29;20486;-84
2021/08/11 05:31:04;;;;;;;29.48;15.68;;;;;;;16.42;78.90;101841.75;4966832;29;20036;-84
2021/08/11 05:33:29;;;;;;;24.40;16.15;;;;;;;16.39;79.09;101838.38;4968573;29;20036;-84
2021/08/11 05:35:55;;;;;;;34.70;15.48;;;;;;;16.56;78.84;101850.69;4961089;29;20386;-84
2021/08/11 05:38:21;;;;;;;24.65;15.10;;;;;;;16.59;78.69;101849.63;4944318;29;20494;-84
2021/08/11 05:40:47;;;;;;;22.67;14.90;;;;;;;16.48;79.07;101866.31;4943609;29;20027;-84
2021/08/11 05:43:12;;;;;;;24.50;14.95;;;;;;;16.58;78.85;101875.50;4960700;29;20065;-84
2021/08/11 05:45:38;;;;;;;26.38;15.13;;;;;;;16.44;79.68;101871.00;4959913;29;20036;-84
2021/08/11 05:48:05;;;;;;;28.65;14.95;;;;;;;16.55;79.04;101876.50;4960576;29;20058;-84
2021/08/11 05:50:31;;;;;;;31.70;15.80;;;;;;;16.60;79.46;101875.38;4960583;29;20066;-84
2021/08/11 05:52:57;;;;;;;26.15;15.00;;;;;;;16.68;78.95;101881.09;4939882;29;20070;-83
2021/08/11 05:55:22;;;;;;;26.65;14.02;;;;;;;16.90;78.64;101880.59;4956934;29;20027;-85
2021/08/11 05:57:48;;;;;;;24.00;14.45;;;;;;;17.01;78.16;101889.72;4957167;29;20049;-84
2021/08/11 06:00:16;;;;;;;24.35;14.43;;;;;;;17.09;78.20;101884.78;4956520;29;20023;-84
2021/08/11 06:02:42;;;;;;;30.52;15.55;;;;;;;17.25;77.77;101887.34;4956508;29;20028;-84
2021/08/11 06:05:08;;;;;;;23.65;13.77;;;;;;;17.51;77.19;101898.13;4956598;29;20027;-83
2021/08/11 06:07:33;;;;;;;20.65;13.10;;;;;;;17.66;77.47;101887.38;4956520;29;20150;-83
2021/08/11 06:09:59;;;;;;;24.70;13.25;;;;;;;17.61;76.42;101898.38;4938920;29;20390;-83
2021/08/11 06:12:24;;;;;;;21.08;13.13;;;;;;;17.89;75.50;101893.88;4956357;29;20386;-83
2021/08/11 06:14:50;;;;;;;26.77;13.02;;;;;;;17.84;75.64;101903.16;4956304;29;20053;-83
2021/08/11 06:17:15;;;;;;;22.10;12.68;;;;;;;17.99;75.44;101903.94;4939896;29;20037;-82
2021/08/11 06:19:42;;;;;;;21.40;12.90;;;;;;;17.83;75.44;101909.47;4958191;29;20029;-82
2021/08/11 06:22:08;;;;;;;18.42;12.60;;;;;;;17.61;76.88;101900.19;4958054;29;20039;-84
2021/08/11 06:24:33;;;;;;;23.58;12.57;;;;;;;18.15;74.84;101893.09;4941822;29;20126;-83
2021/08/11 06:26:59;;;;;;;21.88;13.57;;;;;;;18.23;74.42;101901.41;4958361;29;20028;-85
2021/08/11 06:29:24;;;;;;;21.92;13.05;;;;;;;18.33;74.29;101885.59;4955682;28;20027;-82
2021/08/11 06:31:50;;;;;;;24.92;13.23;;;;;;;18.08;75.27;101892.59;4955835;29;20043;-82
2021/08/11 06:34:17;;;;;;;20.90;13.23;;;;;;;18.32;74.52;101885.69;4938293;29;20038;-84
2021/08/11 06:36:43;;;;;;;21.23;12.45;;;;;;;18.19;74.81;101883.88;4955661;29;20038;-84
2021/08/11 06:39:08;;;;;;;20.70;12.90;;;;;;;18.01;75.30;101886.81;4955498;29;20031;-83
2021/08/11 06:41:34;;;;;;;24.80;13.38;;;;;;;18.17;75.57;101894.69;4955512;29;20093;-84
2021/08/11 06:44:00;;;;;;;19.67;12.60;;;;;;;18.36;74.58;101900.56;4955717;29;20040;-81
2021/08/11 06:46:25;;;;;;;25.05;14.63;;;;;;;18.14;75.38;101899.38;4955431;29;20038;-83
2021/08/11 06:48:53;;;;;;;25.00;14.02;;;;;;;18.15;75.46;101903.78;4955481;29;20027;-83
2021/08/11 06:51:18;;;;;;;22.65;14.05;;;;;;;18.03;76.10;101902.75;4955444;29;20382;-84
2021/08/11 06:53:44;;;;;;;26.20;14.85;;;;;;;18.17;75.59;101902.72;4955320;29;20031;-83
2021/08/11 06:56:09;;;;;;;25.25;13.98;;;;;;;18.24;75.64;101905.84;4955223;29;20028;-83
2021/08/11 06:58:36;;;;;;;26.55;14.85;;;;;;;18.41;75.19;101907.34;4955366;29;20443;-83
2021/08/11 07:01:01;;;;;;;24.67;13.55;;;;;;;18.58;74.65;101923.16;4937910;29;20565;-83
2021/08/11 07:03:27;;;;;;;24.02;14.48;;;;;;;18.57;74.43;101914.28;4955101;29;20031;-83
2021/08/11 07:05:52;;;;;;;19.38;13.27;;;;;;;18.77;73.69;101907.53;4954888;29;20039;-83
2021/08/11 07:08:20;;;;;;;23.80;14.02;;;;;;;18.89;73.43;101913.81;4955141;29;20031;-82
2021/08/11 07:10:45;;;;;;;23.48;13.85;;;;;;;19.00;73.53;101922.94;4955426;29;20027;-82
2021/08/11 07:13:10;;;;;;;23.08;14.27;;;;;;;19.24;72.73;101924.81;4957963;29;20031;-83
2021/08/11 07:15:36;;;;;;;23.85;14.45;;;;;;;19.07;73.02;101921.50;4943209;29;20027;-83
2021/08/11 07:18:01;;;;;;;22.20;13.93;;;;;;;19.11;72.88;101917.66;4956734;29;20020;-82
2021/08/11 07:20:29;;;;;;;22.80;14.93;;;;;;;19.02;73.31;101920.97;4955180;29;20031;-83
2021/08/11 07:22:58;;;;;;;27.35;15.27;;;;;;;18.95;73.28;101927.75;4955016;29;20038;-82
2021/08/11 07:25:24;;;;;;;25.25;14.68;;;;;;;19.06;73.57;101938.56;4953667;29;20078;-83
2021/08/11 07:27:49;;;;;;;23.20;14.52;;;;;;;19.20;72.35;101926.88;4955084;29;20466;-83
2021/08/11 07:30:15;;;;;;;28.38;15.00;;;;;;;19.43;72.20;101932.38;4954872;29;20495;-83
2021/08/11 07:32:42;;;;;;;21.15;15.00;;;;;;;19.59;71.94;101932.09;4954814;29;20522;-83
2021/08/11 07:35:09;;;;;;;28.33;15.02;;;;;;;19.31;72.80;101923.41;4937988;29;20491;-84
2021/08/11 07:37:44;;;;;;;21.63;14.45;;;;;;;19.82;71.12;101926.81;4955215;29;20074;-82
2021/08/11 07:40:12;;;;;;;24.85;14.70;;;;;;;19.96;70.19;101923.06;4953389;29;20042;-85
2021/08/11 07:42:38;;;;;;;20.60;13.52;;;;;;;20.16;69.77;101928.81;4954808;29;20439;-85
2021/08/11 07:45:03;;;;;;;18.60;13.20;;;;;;;20.26;69.44;101928.91;4952735;29;20031;-84
2021/08/11 07:47:29;;;;;;;26.00;13.32;;;;;;;20.34;68.74;101922.94;4939435;29;20032;-83
2021/08/11 07:49:54;;;;;;;21.25;14.05;;;;;;;20.47;68.77;101921.03;4947037;29;20027;-83
2021/08/11 07:52:20;;;;;;;19.05;13.35;;;;;;;20.72;67.65;101923.59;4941869;29;20043;-84
2021/08/11 07:54:45;;;;;;;20.92;13.10;;;;;;;21.02;67.48;101925.69;4946396;29;20028;-83
2021/08/11 07:57:11;;;;;;;20.15;13.13;;;;;;;21.30;66.31;101927.97;4925799;29;20440;-82
2021/08/11 07:59:36;;;;;;;20.45;13.27;;;;;;;21.28;66.93;101930.78;4945883;29;20031;-83
2021/08/11 08:02:04;;;;;;;18.35;13.05;;;;;;;21.14;66.70;101931.06;4948069;29;20035;-82
2021/08/11 08:04:29;;;;;;;19.60;13.38;;;;;;;21.13;66.33;101915.91;4954434;29;20110;-84
2021/08/11 08:06:54;;;;;;;20.27;12.80;;;;;;;20.88;67.39;101910.63;4943937;29;20431;-84
2021/08/11 08:09:20;;;;;;;18.90;12.55;;;;;;;20.83;67.09;101920.06;4949877;29;20459;-83
2021/08/11 08:11:48;;;;;;;19.70;13.60;;;;;;;20.74;67.97;101911.75;4942546;29;20027;-82
2021/08/11 08:14:17;;;;;;;18.73;12.05;;;;;;;20.77;67.46;101916.03;4946752;29;20039;-83
2021/08/11 08:16:44;;;;;;;18.77;12.85;;;;;;;21.23;66.27;101910.59;4951780;29;20047;-83
2021/08/11 08:19:12;;;;;;;22.08;13.15;;;;;;;21.40;65.96;101914.63;4941374;29;20024;-81
2021/08/11 08:21:38;;;;;;;17.15;12.15;;;;;;;21.40;65.33;101917.31;4938427;29;20039;-83
2021/08/11 08:24:05;;;;;;;17.67;11.55;;;;;;;21.59;64.82;101918.47;4927220;29;20162;-83
2021/08/11 08:26:34;;;;;;;16.05;11.70;;;;;;;21.90;63.18;101918.63;4960444;29;20086;-81
2021/08/11 08:29:00;;;;;;;18.05;11.10;;;;;;;22.04;63.29;101925.53;4960144;29;20039;-84
2021/08/11 08:31:30;;;;;;;18.23;11.48;;;;;;;22.06;63.15;101920.00;4959555;29;20027;-83
2021/08/11 08:33:57;;;;;;;14.18;11.40;;;;;;;21.60;64.29;101928.25;4963128;23;20453;-82
2021/08/11 08:36:23;;;;;;;17.63;11.73;;;;;;;21.37;65.27;101939.09;4940014;29;20036;-83
2021/08/11 08:38:49;;;;;;;16.17;9.82;;;;;;;21.58;65.00;101928.38;4913613;29;20111;-82
2021/08/11 08:41:16;;;;;;;15.30;10.93;;;;;;;21.39;64.35;101923.66;4917610;29;20195;-82
2021/08/11 08:43:42;;;;;;;14.73;9.95;;;;;;;21.31;65.42;101929.66;4903554;29;20414;-83
2021/08/11 08:46:08;;;;;;;16.75;10.60;;;;;;;21.41;64.38;101935.16;4924659;29;20142;-82
2021/08/11 08:48:36;;;;;;;12.82;9.05;;;;;;;21.96;63.81;101944.16;4933781;29;20028;-83
2021/08/11 08:51:05;;;;;;;18.58;10.65;;;;;;;21.69;63.70;101938.25;4928477;29;20028;-83
2021/08/11 08:53:30;;;;;;;18.52;10.52;;;;;;;22.06;62.72;101934.31;4921724;29;20028;-82
2021/08/11 08:55:56;;;;;;;16.58;10.68;;;;;;;21.93;63.28;101937.19;4942030;29;20067;-80
2021/08/11 08:58:21;;;;;;;17.17;10.30;;;;;;;21.81;62.67;101932.84;4923313;29;20055;-82
2021/08/11 09:00:48;;;;;;;16.80;10.52;;;;;;;21.88;63.04;101947.50;4927829;29;20039;-84
2021/08/11 09:03:15;;;;;;;14.45;9.50;;;;;;;22.13;61.94;101934.63;4944361;29;20096;-81
2021/08/11 09:05:41;;;;;;;17.38;9.88;;;;;;;22.27;61.55;101931.63;4921454;29;20038;-82
2021/08/11 09:08:07;;;;;;;18.40;9.93;;;;;;;22.65;60.53;101933.84;4939533;29;20038;-83
2021/08/11 09:10:35;;;;;;;12.75;8.52;;;;;;;22.77;59.47;101935.44;4942397;29;20027;-83
2021/08/11 09:13:09;;;;;;;11.15;8.10;;;;;;;23.24;58.49;101928.63;4935673;29;20035;-83
2021/08/11 09:15:39;;;;;;;11.25;7.97;;;;;;;23.67;56.56;101933.81;4904801;29;20040;-83
2021/08/11 09:18:10;;;;;;;12.82;8.10;;;;;;;24.20;55.19;101941.59;4925396;29;20044;-83
2021/08/11 09:20:38;;;;;;;16.15;8.98;;;;;;;24.08;55.10;101940.88;4924196;29;20024;-82
2021/08/11 09:23:05;;;;;;;17.90;8.90;;;;;;;24.35;54.72;101934.75;4907593;29;20028;-81
2021/08/11 09:25:31;;;;;;;13.13;8.30;;;;;;;23.93;56.17;101938.63;4925486;29;20035;-82
2021/08/11 09:27:57;;;;;;;12.75;8.25;;;;;;;25.41;52.42;101937.25;4921545;29;20044;-82
2021/08/11 09:30:25;;;;;;;11.88;8.23;;;;;;;26.21;49.59;101948.25;4927647;29;20032;-82
2021/08/11 09:33:08;;;;;;;14.75;8.25;;;;;;;26.18;49.76;101946.72;4917212;29;20063;-83
2021/08/11 09:35:39;;;;;;;11.55;7.68;;;;;;;26.78;48.31;101944.22;4934431;29;20055;-82
2021/08/11 09:38:11;;;;;;;11.27;7.13;;;;;;;27.65;46.23;101944.09;4926501;29;20036;-82
2021/08/11 09:40:37;;;;;;;11.18;7.13;;;;;;;26.32;48.48;101963.44;4907646;29;20044;-83
2021/08/11 09:43:04;;;;;;;13.30;7.55;;;;;;;26.60;47.95;101955.13;4895414;29;20028;-83
2021/08/11 09:45:51;;;;;;;10.40;6.90;;;;;;;26.79;47.87;101961.31;4901966;29;20020;-83
2021/08/11 09:48:41;;;;;;;12.02;7.65;;;;;;;27.11;46.61;101948.94;4902830;29;20028;-83
2021/08/11 09:51:10;;;;;;;10.95;8.05;;;;;;;27.52;46.52;101950.03;4901153;29;20046;-82
2021/08/11 09:53:38;;;;;;;11.82;6.70;;;;;;;28.33;44.74;101949.38;4886511;29;20024;-83
2021/08/11 09:56:08;;;;;;;10.68;6.80;;;;;;;29.09;43.20;101956.25;4901366;29;20032;-85
2021/08/11 09:59:00;;;;;;;13.00;7.55;;;;;;;28.96;43.24;101949.50;4901246;29;20107;-84
2021/08/11 10:01:26;;;;;;;10.05;6.78;;;;;;;28.73;43.27;101958.44;4906775;29;20090;-84
2021/08/11 10:04:03;;;;;;;9.27;6.60;;;;;;;28.46;42.39;101955.13;4915684;29;20174;-84
2021/08/11 10:06:35;;;;;;;10.73;7.05;;;;;;;28.89;42.58;101959.38;4927978;29;20031;-84
2021/08/11 10:09:26;;;;;;;11.63;7.28;;;;;;;28.30;43.56;101949.69;4934050;29;20035;-84
2021/08/11 10:11:58;;;;;;;7.38;5.60;;;;;;;28.76;42.89;101957.22;4937004;29;20055;-84
2021/08/11 10:14:27;;;;;;;9.90;7.32;;;;;;;27.09;45.76;101962.69;4937004;29;20031;-87
2021/08/11 10:16:54;;;;;;;10.60;6.80;;;;;;;27.30;45.17;101964.06;4937158;29;20031;-84
2021/08/11 10:19:29;;;;;;;12.73;6.72;;;;;;;26.45;46.45;101966.56;4937047;29;20067;-88
2021/08/11 10:21:57;;;;;;;11.77;7.13;;;;;;;26.98;44.70;101963.81;4936671;29;20027;-83
2021/08/11 10:24:22;;;;;;;9.70;6.65;;;;;;;26.49;46.06;101967.13;4936956;29;20031;-83
2021/08/11 10:26:51;;;;;;;10.93;7.15;;;;;;;26.28;47.17;101971.00;4919862;29;20379;-87
2021/08/11 10:29:16;;;;;;;9.63;6.82;;;;;;;25.69;48.37;101963.41;4904948;29;20042;-84
2021/08/11 10:31:42;;;;;;;12.25;6.60;;;;;;;26.10;47.88;101971.91;4936687;29;20039;-84
2021/08/11 10:34:07;;;;;;;10.38;7.65;;;;;;;26.30;46.71;101965.41;4919382;29;20036;-85
2021/08/11 10:36:33;;;;;;;14.65;8.45;;;;;;;25.43;49.08;101965.03;4919546;29;20051;-84
2021/08/11 10:39:00;;;;;;;12.23;8.13;;;;;;;25.64;49.28;101972.00;4919305;29;20040;-85
2021/08/11 10:41:30;;;;;;;11.10;7.57;;;;;;;25.68;48.93;101973.44;4920791;29;20037;-84
2021/08/11 10:43:55;;;;;;;11.35;7.55;;;;;;;26.40;46.24;101968.94;4920910;29;20028;-84
2021/08/11 10:46:20;;;;;;;10.43;6.60;;;;;;;25.54;49.25;101969.38;4920157;29;20497;-84
2021/08/11 10:49:03;;;;;;;15.25;7.75;;;;;;;26.54;47.28;101982.91;4904403;29;20028;-86
2021/08/11 10:51:42;;;;;;;12.48;8.02;;;;;;;26.35;47.03;101972.13;4919978;29;20119;-87
2021/08/11 10:54:07;;;;;;;15.38;8.93;;;;;;;26.08;47.60;101967.66;4937220;29;20112;-84
2021/08/11 10:56:43;;;;;;;14.25;7.75;;;;;;;26.28;47.81;101972.88;4938153;29;20028;-85
2021/08/11 10:59:22;;;;;;;10.48;7.70;;;;;;;26.35;46.90;101974.84;4920713;29;20114;-86
2021/08/11 11:01:51;;;;;;;10.38;7.80;;;;;;;26.60;45.99;101966.84;4920634;29;20032;-87
2021/08/11 11:04:37;;;;;;;9.48;7.45;;;;;;;26.35;47.50;101965.84;4920798;29;20179;-84
2021/08/11 11:07:09;;;;;;;12.98;6.72;;;;;;;27.16;45.01;101962.84;4920489;29;20028;-84
2021/08/11 11:09:35;;;;;;;9.02;7.20;;;;;;;27.47;44.29;101975.00;4936282;29;20032;-83
2021/08/11 11:12:15;;;;;;;10.55;7.18;;;;;;;27.95;44.98;101971.66;4936901;29;20074;-84
2021/08/11 11:14:56;;;;;;;12.05;6.80;;;;;;;27.67;43.60;101963.84;4937107;29;20043;-84
2021/08/11 11:17:31;;;;;;;9.52;8.02;;;;;;;26.90;45.76;101973.75;4919829;29;20031;-85